Uni-assent — 3FBD9 — position and weather

sailwx.info

Track history (hours):
 
Tides and Currents Weather Stations Pressure Air Temp Water Temp Dewpoint Dewpoint Depression Visibility Wind Speed Wind Dir Waves Ship Positions

Uni-assent

Last reported at 2017-Nov-19 16:42 UTC. Time now 2017-Nov-23 05:45 UTC.
Position N 46°18' E 031°06'.

Length 165 m; draft 7.2 m.

Type: Ship (hazmat cat D). MMSI: 357157000.

Date/timePositionNaut miles runAvg speedWind from/ knotsBaromVisibWave heightAir tempDewpointWater temp
2017-Nov-19 16:42N 46°18' E 031°06'344 9.5
2017-Nov-18 04:38N 40°46' E 029°01'0 0.9
2017-Nov-18 04:29N 40°46' E 029°01'1 0.9
2017-Nov-18 03:55N 40°46' E 029°01'0 0.9
2017-Nov-18 03:25N 40°47' E 029°02'0 0.7
2017-Nov-18 02:59N 40°47' E 029°02'510.8
2017-Nov-18 02:30N 40°51' E 028°57'812.6
2017-Nov-18 01:52N 40°59' E 028°59'1 0.2
2017-Nov-17 18:29N 41°00' E 029°00'1 2.8
2017-Nov-17 17:59N 40°59' E 028°60'711.0
2017-Nov-17 17:18N 40°52' E 029°01'414.0
2017-Nov-17 17:01N 40°48' E 029°04'815.2
2017-Nov-17 16:30N 40°45' E 029°13'712.9
2017-Nov-17 16:00N 40°44' E 029°22'611.0
2017-Nov-17 15:28N 40°45' E 029°29'2 0.4
2017-Nov-17 09:58N 40°46' E 029°32'1 1.6
2017-Nov-17 09:28N 40°46' E 029°31'4 9.1
2017-Nov-17 09:00N 40°44' E 029°26'4 8.1
2017-Nov-17 08:29N 40°43' E 029°21'3 5.1
2017-Nov-17 07:57N 40°43' E 029°17'612.6
2017-Nov-17 07:30N 40°43' E 029°09'30812.7
2017-Nov-16 07:17N 37°36' E 023°54'414.5
2017-Nov-16 06:59N 37°37' E 023°49'714.7
2017-Nov-16 06:30N 37°41' E 023°42'714.7
2017-Nov-16 06:00N 37°47' E 023°37'713.6
2017-Nov-16 05:30N 37°54' E 023°36'4 6.6
2017-Nov-16 04:58N 37°57' E 023°36'0 0.0
2017-Nov-16 04:28N 37°57' E 023°36'0 0.0
2017-Nov-16 03:58N 37°57' E 023°36'0 0.0
2017-Nov-16 03:31N 37°57' E 023°36'0 0.0
2017-Nov-16 03:01N 37°57' E 023°36'0 0.0
2017-Nov-16 02:30N 37°57' E 023°36'0 0.0
2017-Nov-16 02:01N 37°57' E 023°36'0 0.0
2017-Nov-16 01:30N 37°57' E 023°36'0 0.0
2017-Nov-16 01:00N 37°57' E 023°36'0 0.0
2017-Nov-16 00:31N 37°57' E 023°36'0 0.0
2017-Nov-16 00:00N 37°57' E 023°36'0 0.0
2017-Nov-15 23:31N 37°57' E 023°36'0 0.0
2017-Nov-15 23:01N 37°57' E 023°36'0 0.0
2017-Nov-15 22:30N 37°57' E 023°36'0 0.0
2017-Nov-15 22:00N 37°57' E 023°36'0 0.0
2017-Nov-15 21:30N 37°57' E 023°36'0 0.0
2017-Nov-15 21:00N 37°57' E 023°36'0 0.0
2017-Nov-15 20:30N 37°57' E 023°36'0 0.0
2017-Nov-15 20:01N 37°57' E 023°36'0 0.0
2017-Nov-15 19:31N 37°57' E 023°36'0 0.0
2017-Nov-15 19:00N 37°57' E 023°36'0 0.0
2017-Nov-15 18:30N 37°57' E 023°36'0 0.0
2017-Nov-15 18:01N 37°57' E 023°36'0 0.0
2017-Nov-15 17:30N 37°57' E 023°36'0 0.0
2017-Nov-15 17:00N 37°57' E 023°36'0 0.0
2017-Nov-15 16:31N 37°57' E 023°36'0 0.0
2017-Nov-15 16:01N 37°57' E 023°36'0 0.0
2017-Nov-15 15:31N 37°57' E 023°36'0 0.0
2017-Nov-15 15:01N 37°57' E 023°36'0 0.0
2017-Nov-15 14:31N 37°57' E 023°36'0 0.0
2017-Nov-15 14:00N 37°57' E 023°36'0 0.0
2017-Nov-15 13:30N 37°57' E 023°36'0 0.0
2017-Nov-15 13:01N 37°57' E 023°36'0 0.0
2017-Nov-15 12:30N 37°57' E 023°36'0 0.0
2017-Nov-15 12:01N 37°57' E 023°36'0 0.0
2017-Nov-15 11:31N 37°57' E 023°36'0 0.0
2017-Nov-15 11:00N 37°57' E 023°36'0 0.0
2017-Nov-15 10:31N 37°57' E 023°36'0 0.0
2017-Nov-15 10:00N 37°57' E 023°36'0 0.0
2017-Nov-15 09:30N 37°57' E 023°36'0 0.0
2017-Nov-15 09:01N 37°57' E 023°36'0 0.0
2017-Nov-15 08:31N 37°57' E 023°36'0 0.0
2017-Nov-15 08:01N 37°57' E 023°36'0 0.0
2017-Nov-15 07:30N 37°57' E 023°36'0 0.0
2017-Nov-15 07:01N 37°57' E 023°36'0 0.0
2017-Nov-15 06:31N 37°57' E 023°36'0 0.0
2017-Nov-15 06:01N 37°57' E 023°36'0 0.0
2017-Nov-15 05:31N 37°57' E 023°36'0 0.0
2017-Nov-15 05:01N 37°57' E 023°36'0 0.0
2017-Nov-15 04:31N 37°57' E 023°36'0 0.0
2017-Nov-15 04:01N 37°57' E 023°36'0 0.0
2017-Nov-15 03:31N 37°57' E 023°36'0 0.0
2017-Nov-15 03:00N 37°57' E 023°36'0 0.0
2017-Nov-15 02:31N 37°57' E 023°36'0 0.0
2017-Nov-15 02:00N 37°57' E 023°36'0 0.0
2017-Nov-15 01:30N 37°57' E 023°36'0 0.0
2017-Nov-15 01:01N 37°57' E 023°36'0 0.0
2017-Nov-15 00:30N 37°57' E 023°36'0 0.1
2017-Nov-15 00:00N 37°57' E 023°36'2 4.2
2017-Nov-14 23:31N 37°55' E 023°36'3 5.9
2017-Nov-14 23:00N 37°53' E 023°38'714.6
2017-Nov-14 22:30N 37°46' E 023°42'815.6
2017-Nov-14 22:00N 37°39' E 023°47'815.5
2017-Nov-14 21:30N 37°36' E 023°56'815.4
2017-Nov-14 20:57N 37°36' E 024°06'1015.4
2017-Nov-14 20:18N 37°42' E 024°16'515.2
2017-Nov-14 19:57N 37°46' E 024°22'715.3
2017-Nov-14 19:28N 37°50' E 024°29'25913.7
2017-Nov-14 00:38N 40°51' E 028°27'514.9
2017-Nov-14 00:19N 40°52' E 028°34'515.2
2017-Nov-14 00:00N 40°53' E 028°40'815.6
2017-Nov-13 23:30N 40°54' E 028°50'  
2017-Nov-10 07:35N 43°33' E 028°41'115.7
2017-Nov-10 07:30N 43°34' E 028°42'815.6
2017-Nov-10 07:00N 43°40' E 028°47'815.5
2017-Nov-10 06:30N 43°47' E 028°52'815.8
2017-Nov-10 06:00N 43°55' E 028°52'714.8
2017-Nov-10 05:30N 44°01' E 028°46'611.8
2017-Nov-10 05:00N 44°06' E 028°42'2 3.2
2017-Nov-10 04:29N 44°06' E 028°40'0 0.2
2017-Nov-10 03:59N 44°06' E 028°40'0 0.0
2017-Nov-10 03:29N 44°06' E 028°40'0 0.0
2017-Nov-10 03:00N 44°06' E 028°40'0 0.0
2017-Nov-10 02:30N 44°06' E 028°40'0 0.1
2017-Nov-10 02:00N 44°06' E 028°40'0 0.1
2017-Nov-10 01:30N 44°06' E 028°40'0 0.0
2017-Nov-10 01:00N 44°06' E 028°40'0 0.0
2017-Nov-10 00:30N 44°06' E 028°40'0 0.0
2017-Nov-10 00:00N 44°06' E 028°40'0 0.0
2017-Nov-09 23:30N 44°06' E 028°40'0 0.0
2017-Nov-09 23:00N 44°06' E 028°40'0 0.0
2017-Nov-09 22:30N 44°06' E 028°40'0 0.0
2017-Nov-09 22:00N 44°06' E 028°40'0 0.0
2017-Nov-09 21:30N 44°06' E 028°40'0 0.0
2017-Nov-09 21:00N 44°06' E 028°40'0 0.0
2017-Nov-09 20:30N 44°06' E 028°40'0 0.0
2017-Nov-09 20:00N 44°06' E 028°40'0 0.8
2017-Nov-09 19:30N 44°07' E 028°40'2 4.0
2017-Nov-09 19:00N 44°06' E 028°42'4 8.3
2017-Nov-09 18:30N 44°03' E 028°46'4 8.5
2017-Nov-09 18:00N 43°60' E 028°50'612.3
2017-Nov-09 17:30N 44°01' E 028°59'713.5
2017-Nov-09 17:01N 44°05' E 029°07'  
Track history (hours):
 
Tides and Currents Weather Stations Pressure Air Temp Water Temp Dewpoint Dewpoint Depression Visibility Wind Speed Wind Dir Waves Ship Positions

Uni-assent

Last reported at 2017-Nov-19 16:42 UTC. Time now 2017-Nov-23 05:45 UTC.
Position N 46°18' E 031°06'.

Length 165 m; draft 7.2 m.

Type: Ship (hazmat cat D). MMSI: 357157000.

Date/timePositionNaut miles runAvg speedWind from/ knotsBaromVisibWave heightAir tempDewpointWater temp
2017-Nov-19 16:42N 46°18' E 031°06'344 9.5
2017-Nov-18 04:38N 40°46' E 029°01'0 0.9
2017-Nov-18 04:29N 40°46' E 029°01'1 0.9
2017-Nov-18 03:55N 40°46' E 029°01'0 0.9
2017-Nov-18 03:25N 40°47' E 029°02'0 0.7
2017-Nov-18 02:59N 40°47' E 029°02'510.8
2017-Nov-18 02:30N 40°51' E 028°57'812.6
2017-Nov-18 01:52N 40°59' E 028°59'1 0.2
2017-Nov-17 18:29N 41°00' E 029°00'1 2.8
2017-Nov-17 17:59N 40°59' E 028°60'711.0
2017-Nov-17 17:18N 40°52' E 029°01'414.0
2017-Nov-17 17:01N 40°48' E 029°04'815.2
2017-Nov-17 16:30N 40°45' E 029°13'712.9
2017-Nov-17 16:00N 40°44' E 029°22'611.0
2017-Nov-17 15:28N 40°45' E 029°29'2 0.4
2017-Nov-17 09:58N 40°46' E 029°32'1 1.6
2017-Nov-17 09:28N 40°46' E 029°31'4 9.1
2017-Nov-17 09:00N 40°44' E 029°26'4 8.1
2017-Nov-17 08:29N 40°43' E 029°21'3 5.1
2017-Nov-17 07:57N 40°43' E 029°17'612.6
2017-Nov-17 07:30N 40°43' E 029°09'30812.7
2017-Nov-16 07:17N 37°36' E 023°54'414.5
2017-Nov-16 06:59N 37°37' E 023°49'714.7
2017-Nov-16 06:30N 37°41' E 023°42'714.7
2017-Nov-16 06:00N 37°47' E 023°37'713.6
2017-Nov-16 05:30N 37°54' E 023°36'4 6.6
2017-Nov-16 04:58N 37°57' E 023°36'0 0.0
2017-Nov-16 04:28N 37°57' E 023°36'0 0.0
2017-Nov-16 03:58N 37°57' E 023°36'0 0.0
2017-Nov-16 03:31N 37°57' E 023°36'0 0.0
2017-Nov-16 03:01N 37°57' E 023°36'0 0.0
2017-Nov-16 02:30N 37°57' E 023°36'0 0.0
2017-Nov-16 02:01N 37°57' E 023°36'0 0.0
2017-Nov-16 01:30N 37°57' E 023°36'0 0.0
2017-Nov-16 01:00N 37°57' E 023°36'0 0.0
2017-Nov-16 00:31N 37°57' E 023°36'0 0.0
2017-Nov-16 00:00N 37°57' E 023°36'0 0.0
2017-Nov-15 23:31N 37°57' E 023°36'0 0.0
2017-Nov-15 23:01N 37°57' E 023°36'0 0.0
2017-Nov-15 22:30N 37°57' E 023°36'0 0.0
2017-Nov-15 22:00N 37°57' E 023°36'0 0.0
2017-Nov-15 21:30N 37°57' E 023°36'0 0.0
2017-Nov-15 21:00N 37°57' E 023°36'0 0.0
2017-Nov-15 20:30N 37°57' E 023°36'0 0.0
2017-Nov-15 20:01N 37°57' E 023°36'0 0.0
2017-Nov-15 19:31N 37°57' E 023°36'0 0.0
2017-Nov-15 19:00N 37°57' E 023°36'0 0.0
2017-Nov-15 18:30N 37°57' E 023°36'0 0.0
2017-Nov-15 18:01N 37°57' E 023°36'0 0.0
2017-Nov-15 17:30N 37°57' E 023°36'0 0.0
2017-Nov-15 17:00N 37°57' E 023°36'0 0.0
2017-Nov-15 16:31N 37°57' E 023°36'0 0.0
2017-Nov-15 16:01N 37°57' E 023°36'0 0.0
2017-Nov-15 15:31N 37°57' E 023°36'0 0.0
2017-Nov-15 15:01N 37°57' E 023°36'0 0.0
2017-Nov-15 14:31N 37°57' E 023°36'0 0.0
2017-Nov-15 14:00N 37°57' E 023°36'0 0.0
2017-Nov-15 13:30N 37°57' E 023°36'0 0.0
2017-Nov-15 13:01N 37°57' E 023°36'0 0.0
2017-Nov-15 12:30N 37°57' E 023°36'0 0.0
2017-Nov-15 12:01N 37°57' E 023°36'0 0.0
2017-Nov-15 11:31N 37°57' E 023°36'0 0.0
2017-Nov-15 11:00N 37°57' E 023°36'0 0.0
2017-Nov-15 10:31N 37°57' E 023°36'0 0.0
2017-Nov-15 10:00N 37°57' E 023°36'0 0.0
2017-Nov-15 09:30N 37°57' E 023°36'0 0.0
2017-Nov-15 09:01N 37°57' E 023°36'0 0.0
2017-Nov-15 08:31N 37°57' E 023°36'0 0.0
2017-Nov-15 08:01N 37°57' E 023°36'0 0.0
2017-Nov-15 07:30N 37°57' E 023°36'0 0.0
2017-Nov-15 07:01N 37°57' E 023°36'0 0.0
2017-Nov-15 06:31N 37°57' E 023°36'0 0.0
2017-Nov-15 06:01N 37°57' E 023°36'0 0.0
2017-Nov-15 05:31N 37°57' E 023°36'0 0.0
2017-Nov-15 05:01N 37°57' E 023°36'0 0.0
2017-Nov-15 04:31N 37°57' E 023°36'0 0.0
2017-Nov-15 04:01N 37°57' E 023°36'0 0.0
2017-Nov-15 03:31N 37°57' E 023°36'0 0.0
2017-Nov-15 03:00N 37°57' E 023°36'0 0.0
2017-Nov-15 02:31N 37°57' E 023°36'0 0.0
2017-Nov-15 02:00N 37°57' E 023°36'0 0.0
2017-Nov-15 01:30N 37°57' E 023°36'0 0.0
2017-Nov-15 01:01N 37°57' E 023°36'0 0.0
2017-Nov-15 00:30N 37°57' E 023°36'0 0.1
2017-Nov-15 00:00N 37°57' E 023°36'2 4.2
2017-Nov-14 23:31N 37°55' E 023°36'3 5.9
2017-Nov-14 23:00N 37°53' E 023°38'714.6
2017-Nov-14 22:30N 37°46' E 023°42'815.6
2017-Nov-14 22:00N 37°39' E 023°47'815.5
2017-Nov-14 21:30N 37°36' E 023°56'815.4
2017-Nov-14 20:57N 37°36' E 024°06'1015.4
2017-Nov-14 20:18N 37°42' E 024°16'515.2
2017-Nov-14 19:57N 37°46' E 024°22'715.3
2017-Nov-14 19:28N 37°50' E 024°29'25913.7
2017-Nov-14 00:38N 40°51' E 028°27'514.9
2017-Nov-14 00:19N 40°52' E 028°34'515.2
2017-Nov-14 00:00N 40°53' E 028°40'815.6
2017-Nov-13 23:30N 40°54' E 028°50'  
2017-Nov-10 07:35N 43°33' E 028°41'115.7
2017-Nov-10 07:30N 43°34' E 028°42'815.6
2017-Nov-10 07:00N 43°40' E 028°47'815.5
2017-Nov-10 06:30N 43°47' E 028°52'815.8
2017-Nov-10 06:00N 43°55' E 028°52'714.8
2017-Nov-10 05:30N 44°01' E 028°46'611.8
2017-Nov-10 05:00N 44°06' E 028°42'2 3.2
2017-Nov-10 04:29N 44°06' E 028°40'0 0.2
2017-Nov-10 03:59N 44°06' E 028°40'0 0.0
2017-Nov-10 03:29N 44°06' E 028°40'0 0.0
2017-Nov-10 03:00N 44°06' E 028°40'0 0.0
2017-Nov-10 02:30N 44°06' E 028°40'0 0.1
2017-Nov-10 02:00N 44°06' E 028°40'0 0.1
2017-Nov-10 01:30N 44°06' E 028°40'0 0.0
2017-Nov-10 01:00N 44°06' E 028°40'0 0.0
2017-Nov-10 00:30N 44°06' E 028°40'0 0.0
2017-Nov-10 00:00N 44°06' E 028°40'0 0.0
2017-Nov-09 23:30N 44°06' E 028°40'0 0.0
2017-Nov-09 23:00N 44°06' E 028°40'0 0.0
2017-Nov-09 22:30N 44°06' E 028°40'0 0.0
2017-Nov-09 22:00N 44°06' E 028°40'0 0.0
2017-Nov-09 21:30N 44°06' E 028°40'0 0.0
2017-Nov-09 21:00N 44°06' E 028°40'0 0.0
2017-Nov-09 20:30N 44°06' E 028°40'0 0.0
2017-Nov-09 20:00N 44°06' E 028°40'0 0.8
2017-Nov-09 19:30N 44°07' E 028°40'2 4.0
2017-Nov-09 19:00N 44°06' E 028°42'4 8.3
2017-Nov-09 18:30N 44°03' E 028°46'4 8.5
2017-Nov-09 18:00N 43°60' E 028°50'612.3
2017-Nov-09 17:30N 44°01' E 028°59'713.5
2017-Nov-09 17:01N 44°05' E 029°07'  

Dump ship's entire track history